Main page
METAR-TAF:

METAR-TAF

Airports :

Joplin Regional Airport

Joplin, Missouri, United States

latitude: 37-09-22N, longitude: 094-30-02W, elevation: 981 ft

Current weather observation

The report was made 1 hour and 5 minutes ago, at 22:53 UTC
Wind 16 mph from the South/Southwest with gusts up to 22 mph
Temperature 99°F
Humidity 40%
Pressure 29.88 in. Hg
Visibility: 10 miles
Scattered clouds at a height of 6500 ft

METAR: KJLN 242253Z 20014G19KT 10SM SCT065 37/21 A2988 RMK AO2 SLP102 T03670206

Time: 18:58 (23:58 UTC)

Forecast

The report was made 38 minutes ago, at 23:20 UTC
Forecast valid from 25 at 00 UTC to 25 at 24 UTC
Wind 17 mph from the Southwest with gusts up to 29 mph
Visibility: 6 miles
Scattered clouds at a height of 4000 ft
From 25 at 0100 UTC
Wind 12 mph from the South/Southwest
Visibility: 6 miles
Scattered clouds at a height of 25000 ft

TAF: KJLN 242320Z 2500/2524 22015G25KT P6SM SCT040 FM250100 20010KT P6SM SCT250

Weather observations and forecasts of more than 4000 airports (METAR and TAF reports).

The available stations are represented by yellow and red dots on the map.

Hover mouse over dot to see the name of the station.

Then click to see weather observations and forecasts.

To change the map : click on the green buttons with a black cross to zoom in, on the green button with a dash to zoom out, or on the green arrows for adjacent maps.


METAR-TAF: